createdAt,value
2019-04-25T00:03:43.573Z,81.11
2019-04-25T00:09:02.188Z,80.35
2019-04-25T00:12:12.113Z,80.90
2019-04-25T00:14:41.678Z,80.38
2019-04-25T00:19:47.031Z,80.03
2019-04-25T00:22:34.834Z,79.38
2019-04-25T00:25:22.654Z,78.73
2019-04-25T00:27:51.662Z,78.40
2019-04-25T00:33:11.596Z,78.40
2019-04-25T00:35:43.512Z,79.27
2019-04-25T00:38:12.214Z,79.51
2019-04-25T00:40:43.508Z,80.64
2019-04-25T00:43:12.526Z,79.18
2019-04-25T00:45:42.441Z,78.27
2019-04-25T00:48:12.274Z,77.80
2019-04-25T00:50:43.285Z,78.27
2019-04-25T00:53:12.505Z,77.04
2019-04-25T00:56:01.438Z,77.68
2019-04-25T00:58:50.876Z,77.91
2019-04-25T01:01:58.697Z,77.58
2019-04-25T01:07:07.108Z,76.81
2019-04-25T01:09:35.710Z,75.97
2019-04-25T01:12:04.450Z,76.29
2019-04-25T01:14:33.766Z,75.97
2019-04-25T01:17:03.412Z,76.90
2019-04-25T01:19:31.991Z,76.71
2019-04-25T01:22:00.694Z,76.43
2019-04-25T01:24:29.379Z,75.70
2019-04-25T01:27:17.506Z,76.49
2019-04-25T01:30:25.966Z,75.96
2019-04-25T01:35:54.492Z,76.96
2019-04-25T01:38:43.365Z,76.40
2019-04-25T01:41:31.200Z,75.31
2019-04-25T01:44:19.004Z,75.66
2019-04-25T01:49:36.969Z,76.75
2019-04-25T01:52:05.689Z,76.90
2019-04-25T01:54:34.324Z,75.58
2019-04-25T01:59:38.312Z,75.90
2019-04-25T02:04:44.237Z,75.04
2019-04-25T02:07:13.517Z,75.00
2019-04-25T02:09:43.616Z,75.76
2019-04-25T02:14:48.888Z,76.81
2019-04-25T02:23:01.070Z,78.27
2019-04-25T02:25:29.746Z,78.66
2019-04-25T02:28:01.102Z,78.85
2019-04-25T02:30:28.924Z,79.19
2019-04-25T02:33:00.705Z,79.03
2019-04-25T02:35:27.961Z,78.58
2019-04-25T02:37:59.282Z,78.31
2019-04-25T02:40:27.215Z,77.91
2019-04-25T02:42:58.412Z,77.46
2019-04-25T02:45:45.395Z,76.90
2019-04-25T02:48:34.337Z,76.86
2019-04-25T02:51:24.331Z,76.58
2019-04-25T02:54:13.986Z,76.79
2019-04-25T02:56:46.395Z,76.99
2019-04-25T02:59:14.932Z,76.73
2019-04-25T03:01:44.514Z,76.26
2019-04-25T03:04:14.440Z,76.70
2019-04-25T03:06:45.183Z,76.46
2019-04-25T03:09:15.440Z,77.19
2019-04-25T03:11:47.419Z,76.54
2019-04-25T03:14:15.384Z,76.69
2019-04-25T03:16:44.914Z,77.94
2019-04-25T03:19:34.174Z,78.29
2019-04-25T03:25:00.279Z,79.28
2019-04-25T03:27:29.383Z,80.03
2019-04-25T03:29:59.608Z,80.69
2019-04-25T03:32:28.720Z,80.92
2019-04-25T03:34:58.834Z,81.20
2019-04-25T03:37:27.413Z,82.04
2019-04-25T03:39:56.006Z,81.82
2019-04-25T03:42:24.671Z,81.61
2019-04-25T03:45:14.007Z,82.60
2019-04-25T03:48:04.978Z,83.10
2019-04-25T03:50:34.103Z,82.78
2019-04-25T03:55:53.974Z,82.69
2019-04-25T03:58:23.965Z,82.82
2019-04-25T04:00:54.524Z,83.26
2019-04-25T04:03:23.857Z,82.91
2019-04-25T04:05:54.007Z,83.40
2019-04-25T04:08:24.292Z,83.10
2019-04-25T04:10:54.404Z,82.25
2019-04-25T04:13:24.418Z,82.38
2019-04-25T04:15:54.126Z,82.60
2019-04-25T04:22:09.690Z,82.07
2019-04-25T04:27:33.666Z,81.40
2019-04-25T04:32:58.956Z,82.71
2019-04-25T04:35:27.676Z,83.11
2019-04-25T04:37:56.350Z,83.02
2019-04-25T04:40:25.020Z,83.53
2019-04-25T04:42:53.568Z,84.38
2019-04-25T04:45:23.358Z,83.46
2019-04-25T04:51:08.979Z,81.98
2019-04-25T04:53:38.511Z,82.24
2019-04-25T04:56:26.519Z,81.71
2019-04-25T04:58:55.125Z,80.97
2019-04-25T05:04:33.429Z,81.53
2019-04-25T05:07:21.653Z,81.42
2019-04-25T05:09:50.182Z,81.00
2019-04-25T05:12:19.448Z,80.80
2019-04-25T05:14:49.289Z,81.16
2019-04-25T05:17:17.939Z,80.70
2019-04-25T05:19:46.610Z,80.86
2019-04-25T05:22:15.970Z,80.63
2019-04-25T05:25:25.389Z,79.67
2019-04-25T05:28:01.494Z,78.56
2019-04-25T05:33:17.613Z,77.11
2019-04-25T05:35:44.207Z,75.45
2019-04-25T05:38:15.184Z,74.68
2019-04-25T05:41:25.268Z,74.08
2019-04-25T05:43:54.879Z,72.03
2019-04-25T05:46:25.166Z,72.65
2019-04-25T05:48:53.910Z,72.41
2019-04-25T05:51:23.971Z,71.81
2019-04-25T05:53:52.944Z,71.47
2019-04-25T05:56:22.471Z,69.42
2019-04-25T05:58:53.237Z,68.25
2019-04-25T06:01:22.903Z,67.31
2019-04-25T06:03:53.630Z,67.01
2019-04-25T06:06:24.487Z,65.21
2019-04-25T06:09:14.119Z,64.42
2019-04-25T06:12:03.089Z,63.66
2019-04-25T06:14:33.390Z,63.35
2019-04-25T06:22:46.769Z,60.76
2019-04-25T06:33:09.666Z,59.55
2019-04-25T06:35:38.297Z,60.51
2019-04-25T06:38:06.977Z,60.32
2019-04-25T06:40:35.627Z,60.65
2019-04-25T06:45:59.089Z,60.17
2019-04-25T06:51:03.528Z,56.94
2019-04-25T06:53:34.645Z,47.47
2019-04-25T06:59:13.605Z,40.95
2019-04-25T07:01:44.010Z,38.72
2019-04-25T07:04:14.091Z,36.77
2019-04-25T07:09:53.252Z,32.78
2019-04-25T07:12:24.944Z,31.35
2019-04-25T07:14:53.815Z,32.08
2019-04-25T07:17:24.081Z,29.80
2019-04-25T07:19:54.153Z,31.71
2019-04-25T07:22:23.921Z,31.08
2019-04-25T07:24:53.794Z,29.80
2019-04-25T07:30:27.153Z,28.45
2019-04-25T07:35:23.638Z,29.78
2019-04-25T07:37:53.921Z,27.92
2019-04-25T07:40:23.667Z,29.67
2019-04-25T07:42:53.620Z,29.06
2019-04-25T07:45:23.978Z,26.19
2019-04-25T07:47:54.252Z,27.47
2019-04-25T07:50:24.242Z,27.93
2019-04-25T07:53:14.083Z,27.13
2019-04-25T07:55:43.290Z,27.04
2019-04-25T07:58:14.372Z,29.36
2019-04-25T08:00:43.967Z,26.82
2019-04-25T08:03:15.320Z,27.46
2019-04-25T08:05:44.107Z,28.06
2019-04-25T08:08:13.588Z,29.22
2019-04-25T08:11:23.722Z,28.53
2019-04-25T08:19:37.907Z,28.71
2019-04-25T08:22:06.552Z,29.16
2019-04-25T08:25:15.019Z,31.38
2019-04-25T08:27:45.008Z,29.69
2019-04-25T08:30:14.180Z,30.43
2019-04-25T08:32:44.092Z,32.31
2019-04-25T08:35:13.891Z,31.83
2019-04-25T08:37:44.171Z,32.63
2019-04-25T08:40:55.723Z,31.00
2019-04-25T08:43:24.424Z,31.35
2019-04-25T08:45:54.412Z,33.41
2019-04-25T08:59:36.205Z,31.42
2019-04-25T09:05:08.100Z,32.11
2019-04-25T09:07:37.816Z,32.29
2019-04-25T09:10:26.516Z,31.67
2019-04-25T09:12:55.202Z,32.16
2019-04-25T09:15:24.242Z,32.47
2019-04-25T09:17:54.695Z,30.02
2019-04-25T09:20:24.623Z,31.45
2019-04-25T09:22:54.269Z,31.03
2019-04-25T09:25:23.956Z,31.55
2019-04-25T09:27:54.486Z,29.76
2019-04-25T09:30:24.452Z,30.92
2019-04-25T09:32:53.469Z,30.29
2019-04-25T09:35:23.765Z,31.41
2019-04-25T09:37:53.599Z,30.07
2019-04-25T09:40:23.997Z,31.00
2019-04-25T09:42:53.755Z,30.00
2019-04-25T09:46:03.373Z,30.69
2019-04-25T09:48:51.141Z,29.96
2019-04-25T09:56:55.309Z,30.68
2019-04-25T10:02:55.352Z,30.64
2019-04-25T10:05:23.932Z,30.99
2019-04-25T10:07:53.916Z,31.53
2019-04-25T10:10:24.123Z,31.10
2019-04-25T10:12:54.783Z,30.38
2019-04-25T10:16:03.521Z,29.51
2019-04-25T10:19:13.252Z,30.52
2019-04-25T10:21:42.429Z,30.54
2019-04-25T10:24:11.111Z,29.23
2019-04-25T10:26:39.905Z,30.57
2019-04-25T10:29:08.604Z,29.95
2019-04-25T10:31:37.288Z,29.93
2019-04-25T10:34:05.932Z,27.97
2019-04-25T10:36:34.609Z,28.86
2019-04-25T10:41:54.040Z,29.43
2019-04-25T10:44:24.521Z,27.24
2019-04-25T10:47:33.448Z,29.22
2019-04-25T10:50:45.217Z,28.16
2019-04-25T10:53:13.775Z,26.84
2019-04-25T10:55:42.908Z,27.04
2019-04-25T10:58:14.186Z,27.87
2019-04-25T11:03:37.892Z,25.96
2019-04-25T11:06:06.598Z,26.37
2019-04-25T11:11:29.865Z,26.45
2019-04-25T11:13:58.514Z,27.14
2019-04-25T11:16:27.191Z,26.38
2019-04-25T11:21:50.630Z,26.69
2019-04-25T11:24:19.275Z,27.57
2019-04-25T11:26:50.386Z,29.57
2019-04-25T11:30:08.614Z,26.70
2019-04-25T11:32:28.654Z,26.39
2019-04-25T11:35:37.090Z,27.54
2019-04-25T11:38:45.544Z,26.62
2019-04-25T11:41:34.174Z,27.71
2019-04-25T11:46:58.873Z,25.86
2019-04-25T11:49:28.971Z,25.80
2019-04-25T11:51:57.687Z,25.78
2019-04-25T11:54:26.375Z,26.14
2019-04-25T11:57:34.806Z,25.72
2019-04-25T12:02:58.385Z,24.26
2019-04-25T12:05:27.258Z,25.95
2019-04-25T12:07:55.896Z,24.86
2019-04-25T12:13:19.314Z,27.54
2019-04-25T12:15:48.032Z,27.32
2019-04-25T12:18:16.644Z,24.72
2019-04-25T12:20:46.592Z,24.91
2019-04-25T12:23:15.635Z,26.26
2019-04-25T12:25:46.219Z,24.48
2019-04-25T12:28:14.695Z,26.51
2019-04-25T12:30:43.913Z,26.87
2019-04-25T12:33:20.960Z,25.31
2019-04-25T12:35:44.066Z,26.19
2019-04-25T12:38:14.115Z,25.81
2019-04-25T12:40:43.512Z,26.72
2019-04-25T12:43:13.827Z,26.30
2019-04-25T12:46:02.863Z,25.53
2019-04-25T12:48:31.570Z,25.50
2019-04-25T12:51:00.259Z,25.64
2019-04-25T12:53:28.827Z,24.09
2019-04-25T12:55:57.453Z,22.77
2019-04-25T12:58:26.136Z,22.43
2019-04-25T13:00:58.323Z,23.49
2019-04-25T13:06:19.730Z,24.01
2019-04-25T13:08:49.375Z,24.91
2019-04-25T13:11:58.487Z,22.34
2019-04-25T13:14:27.059Z,24.47
2019-04-25T13:16:55.667Z,23.04
2019-04-25T13:19:26.437Z,22.78
2019-04-25T13:21:54.799Z,23.30
2019-04-25T13:24:23.375Z,24.01
2019-04-25T13:32:22.157Z,25.39
2019-04-25T13:37:26.451Z,24.54
2019-04-25T13:39:55.082Z,23.55
2019-04-25T13:42:23.690Z,24.33
2019-04-25T13:44:52.371Z,24.17
2019-04-25T13:47:21.863Z,24.36
2019-04-25T13:49:51.433Z,24.71
2019-04-25T13:52:20.083Z,24.89
2019-04-25T13:57:27.945Z,24.47
2019-04-25T13:59:56.687Z,24.63
2019-04-25T14:02:25.593Z,26.15
2019-04-25T14:04:54.252Z,24.42
2019-04-25T14:07:23.010Z,25.36
2019-04-25T14:09:52.941Z,26.17
2019-04-25T14:12:23.631Z,25.70
2019-04-25T14:14:53.964Z,25.40
2019-04-25T14:17:41.888Z,25.27
2019-04-25T14:20:30.009Z,25.11
2019-04-25T14:23:38.480Z,26.92
2019-04-25T14:28:46.267Z,26.30
2019-04-25T14:33:51.777Z,22.07
2019-04-25T14:36:22.294Z,23.44
2019-04-25T14:38:51.287Z,22.28
2019-04-25T14:41:19.887Z,20.18
2019-04-25T14:44:07.851Z,19.36
2019-04-25T14:46:36.538Z,20.16
2019-04-25T14:49:05.255Z,20.42
2019-04-25T14:51:33.930Z,21.58
2019-04-25T14:57:00.711Z,19.15
2019-04-25T15:05:12.986Z,20.28
2019-04-25T15:07:41.651Z,21.26
2019-04-25T15:10:10.336Z,20.42
2019-04-25T15:12:38.953Z,20.28
2019-04-25T15:18:15.760Z,20.61
2019-04-25T15:20:44.411Z,20.20
2019-04-25T15:23:13.112Z,21.38
2019-04-25T15:25:41.764Z,20.67
2019-04-25T15:28:10.409Z,20.72
2019-04-25T15:33:14.667Z,20.83
2019-04-25T15:36:02.455Z,20.97
2019-04-25T15:38:50.249Z,22.04
2019-04-25T15:41:37.932Z,21.94
2019-04-25T15:44:26.617Z,21.47
2019-04-25T15:49:31.823Z,22.46
2019-04-25T15:52:00.437Z,22.25
2019-04-25T15:54:29.597Z,22.20
2019-04-25T15:56:59.421Z,22.61
2019-04-25T15:59:28.807Z,23.27
2019-04-25T16:02:07.647Z,21.93
2019-04-25T16:04:28.812Z,22.43
2019-04-25T16:06:57.488Z,23.04
2019-04-25T16:09:26.785Z,20.94
2019-04-25T16:11:56.568Z,21.70
2019-04-25T16:14:26.389Z,21.99
2019-04-25T16:16:55.681Z,22.06
2019-04-25T16:19:24.292Z,22.73
2019-04-25T16:21:52.969Z,22.55
2019-04-25T16:24:21.609Z,23.35
2019-04-25T16:26:50.313Z,24.44
2019-04-25T16:29:18.948Z,22.92
2019-04-25T16:31:47.639Z,24.47
2019-04-25T16:34:16.244Z,23.60
2019-04-25T16:36:44.878Z,23.68
2019-04-25T16:41:48.884Z,24.14
2019-04-25T16:44:36.663Z,24.43
2019-04-25T16:47:05.427Z,24.43
2019-04-25T16:49:34.884Z,23.66
2019-04-25T16:55:46.715Z,23.95
2019-04-25T16:58:15.552Z,24.68
2019-04-25T17:06:29.976Z,24.59
2019-04-25T17:08:58.879Z,24.15
2019-04-25T17:11:27.540Z,24.74
2019-04-25T17:24:23.482Z,24.92
2019-04-25T17:27:11.912Z,25.70
2019-04-25T17:29:40.639Z,25.29
2019-04-25T17:35:08.216Z,26.22
2019-04-25T17:40:45.368Z,26.42
2019-04-25T17:43:14.038Z,26.15
2019-04-25T17:48:57.373Z,26.77
2019-04-25T17:51:26.213Z,26.74
2019-04-25T17:53:54.739Z,27.14
2019-04-25T17:56:23.389Z,27.58
2019-04-25T17:58:52.057Z,26.89
2019-04-25T18:03:56.349Z,27.49
2019-04-25T18:06:24.991Z,28.30
2019-04-25T18:08:53.678Z,28.62
2019-04-25T18:11:22.324Z,29.37
2019-04-25T18:13:51.115Z,29.08
2019-04-25T18:19:28.365Z,29.30
2019-04-25T18:25:05.310Z,29.63
2019-04-25T18:27:53.070Z,29.03
2019-04-25T18:33:16.287Z,30.15
2019-04-25T18:38:40.398Z,30.18
2019-04-25T18:49:09.202Z,32.64
2019-04-25T18:51:38.528Z,31.51
2019-04-25T18:54:27.772Z,30.90
2019-04-25T18:59:55.378Z,33.17
2019-04-25T19:02:43.920Z,32.86
2019-04-25T19:08:02.812Z,33.44
2019-04-25T19:10:31.468Z,35.65
2019-04-25T19:13:12.126Z,34.41
2019-04-25T19:15:30.541Z,33.59
2019-04-25T19:17:59.159Z,34.42
2019-04-25T19:20:27.867Z,35.64
2019-04-25T19:22:56.553Z,36.60
2019-04-25T19:25:25.239Z,35.89
2019-04-25T19:27:53.885Z,37.20
2019-04-25T19:30:22.868Z,36.70
2019-04-25T19:32:51.643Z,35.12
2019-04-25T19:35:20.387Z,36.89
2019-04-25T19:37:49.039Z,38.95
2019-04-25T19:40:57.509Z,44.41
2019-04-25T19:43:45.317Z,51.34
2019-04-25T19:46:14.033Z,54.28
2019-04-25T19:48:49.675Z,54.84
2019-04-25T19:51:18.374Z,54.91
2019-04-25T19:53:47.132Z,56.10
2019-04-25T19:56:15.785Z,55.68
2019-04-25T19:58:44.536Z,56.60
2019-04-25T20:01:13.256Z,56.40
2019-04-25T20:09:16.026Z,55.26
2019-04-25T20:14:20.594Z,55.97
2019-04-25T20:16:49.662Z,56.21
2019-04-25T20:19:19.568Z,56.81
2019-04-25T20:21:48.189Z,57.20
2019-04-25T20:24:16.837Z,57.67
2019-04-25T20:26:46.340Z,57.51
2019-04-25T20:29:15.919Z,58.46
2019-04-25T20:31:45.286Z,58.30
2019-04-25T20:34:14.975Z,58.51
2019-04-25T20:36:43.550Z,59.63
2019-04-25T20:39:12.239Z,59.97
2019-04-25T20:41:40.833Z,60.20
2019-04-25T20:44:09.517Z,60.40
2019-04-25T20:46:38.159Z,61.55
2019-04-25T20:49:06.856Z,62.32
2019-04-25T20:51:35.497Z,62.97
2019-04-25T20:54:04.189Z,63.87
2019-04-25T20:56:32.837Z,64.47
2019-04-25T20:59:01.446Z,64.37
2019-04-25T21:04:57.734Z,65.34
2019-04-25T21:07:26.424Z,65.76
2019-04-25T21:09:55.822Z,66.16
2019-04-25T21:12:24.489Z,66.52
2019-04-25T21:15:12.229Z,66.29
2019-04-25T21:20:30.384Z,67.11
2019-04-25T21:22:58.956Z,66.10
2019-04-25T21:25:27.632Z,66.76
2019-04-25T21:27:56.573Z,67.10
2019-04-25T21:30:26.913Z,67.12
2019-04-25T21:35:44.785Z,67.47
2019-04-25T21:38:15.515Z,67.67
2019-04-25T21:43:40.279Z,67.61
2019-04-25T21:46:09.178Z,67.71
2019-04-25T21:48:38.051Z,67.44
2019-04-25T21:51:45.106Z,67.97
2019-04-25T21:54:13.842Z,68.46
2019-04-25T21:56:42.643Z,67.58
2019-04-25T21:59:13.007Z,67.45
2019-04-25T22:04:17.280Z,68.02
2019-04-25T22:06:47.670Z,68.23
2019-04-25T22:12:45.351Z,69.07
2019-04-25T22:15:14.193Z,69.56
2019-04-25T22:17:42.765Z,69.76
2019-04-25T22:20:11.452Z,69.11
2019-04-25T22:22:41.829Z,69.52
2019-04-25T22:25:10.724Z,69.42
2019-04-25T22:30:34.099Z,69.84
2019-04-25T22:33:23.587Z,70.18
2019-04-25T22:36:11.478Z,70.61
2019-04-25T22:38:40.217Z,70.40
2019-04-25T22:41:09.272Z,71.02
2019-04-25T22:46:33.143Z,70.29
2019-04-25T22:49:03.600Z,71.22
2019-04-25T22:51:32.273Z,71.63
2019-04-25T22:54:02.143Z,71.79
2019-04-25T22:56:31.667Z,72.36
2019-04-25T22:59:00.467Z,72.62
2019-04-25T23:01:50.476Z,72.96
2019-04-25T23:04:38.299Z,73.48
2019-04-25T23:07:07.966Z,73.73
2019-04-25T23:12:14.160Z,73.78
2019-04-25T23:15:03.792Z,73.54
2019-04-25T23:17:33.817Z,73.45
2019-04-25T23:20:04.216Z,73.54
2019-04-25T23:22:33.410Z,73.97
2019-04-25T23:31:06.550Z,74.30
2019-04-25T23:33:35.117Z,74.39
2019-04-25T23:36:24.794Z,74.89
2019-04-25T23:38:53.793Z,75.24
2019-04-25T23:41:22.583Z,75.62
2019-04-25T23:43:51.274Z,75.71
2019-04-25T23:46:19.918Z,76.00
2019-04-25T23:48:48.527Z,76.53
2019-04-25T23:51:17.465Z,76.56
2019-04-25T23:53:48.074Z,76.30
2019-04-25T23:56:17.337Z,76.64
2019-04-25T23:58:47.250Z,76.83
